Time;durP1;ratioP1;P1;durP2;ratioP2;P2;SDS_P1;SDS_P2;PMS_P1;PMS_P2;Temp;Humidity;BMP_temperature;BMP_pressure;BME280_temperature;BME280_humidity;BME280_pressure;Samples;Min_cycle;Max_cycle;Signal;HPM_P1;HPM_P2
2023/08/08 00:00:06;;;;;;;6.10;2.90;;;;;;;20.52;100.00;100408.81;107122;1282;58517;-79
2023/08/08 00:02:32;;;;;;;9.90;3.40;;;;;;;20.46;100.00;100407.19;107170;1282;58160;-79
2023/08/08 00:04:57;;;;;;;5.70;3.30;;;;;;;20.41;100.00;100409.95;106697;1283;58386;-79
2023/08/08 00:07:23;;;;;;;7.80;3.40;;;;;;;20.34;100.00;100414.37;107144;1282;58235;-78
2023/08/08 00:09:49;;;;;;;4.10;3.00;;;;;;;20.26;100.00;100417.17;107121;1282;61076;-79
2023/08/08 00:12:14;;;;;;;4.40;3.00;;;;;;;20.20;100.00;100417.33;107130;1282;59330;-79
2023/08/08 00:14:40;;;;;;;9.20;3.40;;;;;;;20.17;100.00;100423.08;107084;1282;58287;-79
2023/08/08 00:17:05;;;;;;;7.90;3.40;;;;;;;20.16;100.00;100429.13;106694;1283;58408;-79
2023/08/08 00:19:30;;;;;;;5.20;3.20;;;;;;;20.14;100.00;100426.52;107169;1283;58394;-79
2023/08/08 00:21:56;;;;;;;5.10;3.30;;;;;;;20.14;100.00;100424.64;107116;1282;75079;-79
2023/08/08 00:24:22;;;;;;;8.70;2.80;;;;;;;20.12;100.00;100425.84;107116;1282;58383;-79
2023/08/08 00:26:47;;;;;;;21.50;3.50;;;;;;;20.11;100.00;100423.97;107129;1282;58262;-79
2023/08/08 00:29:13;;;;;;;5.50;3.30;;;;;;;20.10;100.00;100423.30;107083;1282;58489;-79
2023/08/08 00:31:38;;;;;;;7.40;3.20;;;;;;;20.07;100.00;100426.88;107191;1282;58708;-79
2023/08/08 00:34:04;;;;;;;9.20;3.20;;;;;;;20.04;100.00;100422.97;107112;1282;74043;-79
2023/08/08 00:36:29;;;;;;;5.00;3.20;;;;;;;20.00;100.00;100430.20;107140;1282;58250;-79
2023/08/08 00:38:55;;;;;;;8.20;3.30;;;;;;;19.99;100.00;100433.25;107121;1283;58560;-79
2023/08/08 00:41:21;;;;;;;11.70;3.20;;;;;;;19.94;100.00;100433.67;106702;1283;58330;-79
2023/08/08 00:43:47;;;;;;;6.90;3.20;;;;;;;19.91;100.00;100433.70;107116;1282;58437;-79
2023/08/08 00:46:12;;;;;;;8.70;3.30;;;;;;;19.87;100.00;100433.48;107170;1282;58504;-79
2023/08/08 00:48:38;;;;;;;5.70;3.20;;;;;;;19.84;100.00;100437.95;107125;1282;58160;-79
2023/08/08 00:51:03;;;;;;;13.90;3.80;;;;;;;19.80;100.00;100440.98;107130;1282;58287;-79
2023/08/08 00:53:31;;;;;;;9.30;3.20;;;;;;;19.77;100.00;100438.17;107151;1282;58377;-79
2023/08/08 00:55:57;;;;;;;7.40;3.90;;;;;;;19.75;100.00;100437.08;107140;1282;58340;-80
2023/08/08 00:58:24;;;;;;;7.40;3.20;;;;;;;19.73;100.00;100437.50;107149;1282;58704;-79
2023/08/08 01:00:49;;;;;;;6.00;3.40;;;;;;;19.74;100.00;100437.82;107105;1282;58210;-80
2023/08/08 01:03:15;;;;;;;6.50;3.50;;;;;;;19.73;100.00;100439.69;107137;1282;58293;-79
2023/08/08 01:06:25;;;;;;;5.10;3.10;;;;;;;19.72;100.00;100440.47;107152;1282;58396;-80
2023/08/08 01:09:16;;;;;;;7.50;3.30;;;;;;;19.70;100.00;100443.11;107152;1282;73409;-79
2023/08/08 01:11:42;;;;;;;9.60;3.50;;;;;;;19.66;100.00;100441.09;107116;1282;73060;-80
2023/08/08 01:14:09;;;;;;;5.80;2.80;;;;;;;19.65;100.00;100442.55;106701;1283;58260;-79
2023/08/08 01:16:35;;;;;;;7.60;3.00;;;;;;;19.65;100.00;100445.97;107131;1282;58235;-79
2023/08/08 01:19:01;;;;;;;7.20;3.30;;;;;;;19.66;100.00;100445.62;107138;1282;58314;-79
2023/08/08 01:21:30;;;;;;;6.90;3.60;;;;;;;19.67;100.00;100445.10;107124;1282;58252;-79
2023/08/08 01:24:23;;;;;;;9.70;3.00;;;;;;;19.65;100.00;100447.52;107094;1282;72951;-80
2023/08/08 01:26:49;;;;;;;8.30;3.40;;;;;;;19.63;100.00;100447.11;107091;1282;61665;-79
2023/08/08 01:29:15;;;;;;;7.40;3.10;;;;;;;19.64;100.00;100446.13;107199;1282;58395;-79
2023/08/08 01:31:40;;;;;;;6.50;2.80;;;;;;;19.65;100.00;100442.44;107166;1282;58221;-80
2023/08/08 01:34:06;;;;;;;5.70;2.80;;;;;;;19.66;100.00;100447.02;107120;1282;58723;-79
2023/08/08 01:36:49;;;;;;;6.00;2.80;;;;;;;19.67;100.00;100452.44;107090;1282;58393;-79
2023/08/08 01:39:19;;;;;;;4.30;2.60;;;;;;;19.66;100.00;100452.64;107132;1282;61641;-79
2023/08/08 01:41:48;;;;;;;4.90;2.80;;;;;;;19.65;100.00;100454.52;106883;1283;61026;-80
2023/08/08 01:44:14;;;;;;;5.00;2.80;;;;;;;19.62;100.00;100452.61;107134;1282;74658;-79
2023/08/08 01:46:40;;;;;;;5.40;2.90;;;;;;;19.60;100.00;100459.44;107129;1283;58181;-79
2023/08/08 01:49:05;;;;;;;4.50;2.70;;;;;;;19.59;100.00;100462.68;107143;1282;58303;-79
2023/08/08 01:51:31;;;;;;;5.70;2.90;;;;;;;19.58;100.00;100467.71;107143;1283;58588;-80
2023/08/08 01:53:56;;;;;;;6.20;2.50;;;;;;;19.58;100.00;100471.15;106687;1285;58317;-80
2023/08/08 01:56:22;;;;;;;8.60;2.80;;;;;;;19.56;100.00;100472.51;107137;1282;58324;-79
2023/08/08 01:58:47;;;;;;;7.70;2.70;;;;;;;19.55;100.00;100475.64;106865;1285;73712;-78
2023/08/08 02:01:13;;;;;;;5.60;2.60;;;;;;;19.53;100.00;100482.12;107111;1282;58261;-79
2023/08/08 02:03:38;;;;;;;5.20;2.70;;;;;;;19.50;100.00;100483.23;106674;1283;58346;-79
2023/08/08 02:06:04;;;;;;;4.10;2.20;;;;;;;19.49;100.00;100487.39;107203;1282;58356;-79
2023/08/08 02:08:29;;;;;;;4.90;2.70;;;;;;;19.44;100.00;100489.77;107182;1282;58634;-79
2023/08/08 02:10:55;;;;;;;4.70;2.50;;;;;;;19.39;100.00;100491.35;107157;1282;58296;-80
2023/08/08 02:13:20;;;;;;;7.20;2.70;;;;;;;19.34;100.00;100493.48;107144;1282;58354;-79
2023/08/08 02:15:46;;;;;;;6.00;2.80;;;;;;;19.33;100.00;100496.47;107183;1282;58263;-79
2023/08/08 02:18:11;;;;;;;3.40;2.60;;;;;;;19.32;100.00;100497.08;107119;1282;58623;-79
2023/08/08 02:20:37;;;;;;;7.00;2.60;;;;;;;19.28;100.00;100500.53;107156;1282;58373;-80
2023/08/08 02:23:03;;;;;;;7.60;3.00;;;;;;;19.29;100.00;100502.81;107150;1282;61461;-79
2023/08/08 02:25:30;;;;;;;9.20;3.20;;;;;;;19.29;100.00;100505.71;107156;1282;58499;-79
2023/08/08 02:27:56;;;;;;;5.70;2.70;;;;;;;19.28;100.00;100508.88;107142;1282;74187;-79
2023/08/08 02:30:21;;;;;;;7.80;3.20;;;;;;;19.27;100.00;100512.89;107140;1282;58283;-79
2023/08/08 02:32:47;;;;;;;4.60;2.90;;;;;;;19.27;100.00;100511.83;106684;1283;58246;-79
2023/08/08 02:35:12;;;;;;;6.00;3.10;;;;;;;19.29;100.00;100513.79;107172;1282;58640;-79
2023/08/08 02:37:38;;;;;;;6.90;2.90;;;;;;;19.30;100.00;100513.58;106818;1282;58675;-79
2023/08/08 02:40:05;;;;;;;6.00;2.80;;;;;;;19.29;100.00;100516.96;107063;1283;72394;-79
2023/08/08 02:42:30;;;;;;;10.00;3.20;;;;;;;19.30;100.00;100517.65;107078;1282;62675;-79
2023/08/08 02:44:56;;;;;;;6.20;3.20;;;;;;;19.33;100.00;100519.95;107181;1282;58152;-79
2023/08/08 02:47:22;;;;;;;8.90;3.70;;;;;;;19.37;100.00;100522.86;107180;1282;58318;-79
2023/08/08 02:49:47;;;;;;;10.10;3.20;;;;;;;19.40;100.00;100524.89;107114;1282;58453;-79
2023/08/08 02:52:12;;;;;;;8.50;3.90;;;;;;;19.46;100.00;100525.30;107117;1282;58299;-79
2023/08/08 02:54:38;;;;;;;6.70;3.30;;;;;;;19.52;100.00;100528.48;107167;1282;58250;-80
2023/08/08 02:57:04;;;;;;;10.80;3.70;;;;;;;19.57;100.00;100528.36;107179;1282;58674;-79
2023/08/08 02:59:29;;;;;;;7.90;3.60;;;;;;;19.63;100.00;100529.68;107144;1282;58162;-80
2023/08/08 03:01:55;;;;;;;7.40;3.80;;;;;;;19.68;100.00;100529.61;107129;1282;58275;-79
2023/08/08 03:04:20;;;;;;;12.80;4.30;;;;;;;19.72;100.00;100530.48;106726;1284;59126;-80
2023/08/08 03:06:46;;;;;;;13.30;4.60;;;;;;;19.75;100.00;100528.73;107133;1282;74943;-80
2023/08/08 03:09:11;;;;;;;10.30;4.00;;;;;;;19.84;100.00;100532.88;107111;1282;58545;-79
2023/08/08 03:11:37;;;;;;;7.50;3.60;;;;;;;19.93;100.00;100534.91;107139;1282;58231;-80
2023/08/08 03:14:03;;;;;;;10.10;4.40;;;;;;;20.03;100.00;100534.01;107132;1282;58441;-79
2023/08/08 03:16:28;;;;;;;10.10;4.70;;;;;;;20.17;100.00;100535.72;107220;1282;58351;-80
2023/08/08 03:18:55;;;;;;;12.70;4.80;;;;;;;20.28;100.00;100534.63;107108;1282;74835;-79
2023/08/08 03:21:20;;;;;;;14.40;4.70;;;;;;;20.38;100.00;100534.11;107106;1282;74122;-80
2023/08/08 03:23:46;;;;;;;12.00;4.30;;;;;;;20.46;100.00;100534.89;107112;1282;58764;-80
2023/08/08 03:26:11;;;;;;;15.10;4.30;;;;;;;20.58;100.00;100541.83;107128;1282;58618;-80
2023/08/08 03:28:37;;;;;;;12.20;4.00;;;;;;;20.70;100.00;100537.02;107166;1282;58285;-80
2023/08/08 03:31:03;;;;;;;10.00;4.60;;;;;;;20.79;100.00;100535.17;106613;1283;58321;-80
2023/08/08 03:33:28;;;;;;;10.30;4.00;;;;;;;20.92;100.00;100535.77;107098;1282;62081;-80
2023/08/08 03:35:54;;;;;;;9.40;4.00;;;;;;;21.04;100.00;100535.93;107092;1282;58632;-80
2023/08/08 03:38:19;;;;;;;10.20;3.80;;;;;;;21.17;100.00;100538.30;107146;1282;59044;-80
2023/08/08 03:40:45;;;;;;;5.70;3.20;;;;;;;21.30;100.00;100535.30;107134;1282;58349;-80
2023/08/08 03:43:10;;;;;;;6.90;3.30;;;;;;;21.50;100.00;100544.05;106758;1283;59178;-80
2023/08/08 03:45:36;;;;;;;10.80;2.80;;;;;;;21.73;100.00;100541.39;107129;1282;58265;-80
2023/08/08 03:48:01;;;;;;;7.40;3.20;;;;;;;22.11;100.00;100539.60;107117;1282;58312;-80
2023/08/08 03:50:27;;;;;;;8.80;3.00;;;;;;;22.79;100.00;100538.35;107200;1282;58411;-81
2023/08/08 03:52:52;;;;;;;5.00;2.90;;;;;;;23.65;100.00;100536.67;106682;1285;58386;-80
2023/08/08 03:55:18;;;;;;;4.70;2.90;;;;;;;24.53;100.00;100538.16;107063;1282;59049;-81
2023/08/08 03:57:44;;;;;;;7.10;2.80;;;;;;;25.29;100.00;100539.41;107159;1282;73654;-81
2023/08/08 04:00:11;;;;;;;6.20;3.20;;;;;;;26.03;100.00;100547.80;107177;1282;58311;-81
2023/08/08 04:02:37;;;;;;;10.10;2.80;;;;;;;26.79;100.00;100548.10;107102;1282;58270;-82
2023/08/08 04:05:02;;;;;;;8.40;2.80;;;;;;;27.51;100.00;100552.55;107195;1282;58204;-81
2023/08/08 04:07:28;;;;;;;9.40;3.10;;;;;;;28.08;100.00;100551.02;107152;1282;58291;-82
2023/08/08 04:09:53;;;;;;;10.30;3.40;;;;;;;28.61;100.00;100560.41;106668;1283;58363;-82
2023/08/08 04:12:19;;;;;;;10.60;3.20;;;;;;;29.20;100.00;100564.34;107117;1283;58357;-81
2023/08/08 04:14:44;;;;;;;5.30;2.70;;;;;;;29.70;98.04;100564.44;106700;1286;60089;-81
2023/08/08 04:17:10;;;;;;;12.70;3.20;;;;;;;30.28;94.55;100561.58;107118;1282;58241;-82
2023/08/08 04:19:35;;;;;;;6.60;3.30;;;;;;;30.71;88.46;100566.79;107134;1282;58305;-81
2023/08/08 04:22:01;;;;;;;5.60;3.30;;;;;;;31.05;86.09;100567.89;107155;1282;58720;-82
2023/08/08 04:24:26;;;;;;;6.80;3.00;;;;;;;31.45;82.22;100571.80;106665;1283;58341;-82
2023/08/08 04:26:52;;;;;;;6.60;2.70;;;;;;;31.96;80.57;100577.79;107188;1282;58385;-82
2023/08/08 04:29:17;;;;;;;6.40;3.00;;;;;;;32.44;74.52;100578.53;106757;1282;58329;-82
2023/08/08 04:31:42;;;;;;;4.80;2.90;;;;;;;32.62;72.78;100584.71;107082;1282;58245;-82
2023/08/08 04:34:08;;;;;;;6.70;3.10;;;;;;;32.93;69.88;100585.63;107137;1282;58227;-82
2023/08/08 04:36:33;;;;;;;8.70;3.50;;;;;;;33.25;68.13;100584.84;107157;1282;58621;-82
2023/08/08 04:38:59;;;;;;;8.30;3.80;;;;;;;33.51;65.17;100592.08;106609;1285;58554;-82
2023/08/08 04:41:24;;;;;;;8.30;3.80;;;;;;;33.78;62.54;100593.98;107144;1282;58248;-82
2023/08/08 04:43:50;;;;;;;7.70;3.70;;;;;;;34.09;60.76;100597.98;107120;1282;58299;-83
2023/08/08 04:46:15;;;;;;;7.10;3.90;;;;;;;34.37;59.14;100605.80;107153;1282;58196;-82
2023/08/08 04:48:41;;;;;;;6.50;3.50;;;;;;;34.87;57.56;100608.06;107177;1282;58248;-82
2023/08/08 04:51:09;;;;;;;17.80;3.70;;;;;;;35.22;53.91;100608.98;107171;1282;58368;-82
2023/08/08 04:53:34;;;;;;;5.50;3.10;;;;;;;35.11;52.93;100610.38;107163;1282;72625;-82
2023/08/08 04:56:00;;;;;;;9.30;3.50;;;;;;;35.38;53.61;100607.55;107144;1282;58296;-83
2023/08/08 04:58:25;;;;;;;5.70;3.00;;;;;;;35.96;52.04;100612.65;106703;1283;58294;-82
2023/08/08 05:00:51;;;;;;;8.00;3.10;;;;;;;36.36;50.77;100613.34;107172;1282;58754;-83
2023/08/08 05:03:17;;;;;;;5.90;2.60;;;;;;;36.65;49.22;100617.02;106776;1283;58665;-83
2023/08/08 05:05:44;;;;;;;6.30;2.80;;;;;;;37.04;48.60;100619.54;107114;1282;61080;-82
2023/08/08 05:08:11;;;;;;;5.00;2.60;;;;;;;37.37;46.48;100618.74;107132;1282;60322;-82
2023/08/08 05:10:36;;;;;;;4.40;2.90;;;;;;;37.64;45.65;100621.70;107112;1282;58301;-83
2023/08/08 05:13:03;;;;;;;2.70;2.30;;;;;;;37.81;44.95;100622.89;106741;1283;59297;-83
2023/08/08 05:15:28;;;;;;;4.70;2.50;;;;;;;38.29;44.24;100624.98;106539;1283;58500;-82
2023/08/08 05:17:55;;;;;;;7.50;2.70;;;;;;;38.59;42.27;100629.65;107121;1282;58283;-82
2023/08/08 05:20:21;;;;;;;4.80;2.80;;;;;;;38.48;41.88;100625.94;106696;1284;58737;-83
2023/08/08 05:22:47;;;;;;;4.90;3.00;;;;;;;38.67;41.90;100628.18;106645;1283;58507;-83
2023/08/08 05:25:12;;;;;;;3.50;2.80;;;;;;;38.92;40.71;100630.45;107157;1282;58218;-80
2023/08/08 05:27:38;;;;;;;3.00;2.60;;;;;;;39.03;39.95;100632.80;107142;1282;58278;-80
2023/08/08 05:30:04;;;;;;;4.20;2.90;;;;;;;39.07;39.74;100629.69;107121;1282;61015;-79
2023/08/08 05:32:30;;;;;;;3.90;2.70;;;;;;;39.19;39.25;100632.70;106756;1285;58246;-80
2023/08/08 05:34:57;;;;;;;7.40;2.80;;;;;;;39.49;39.06;100631.50;107136;1282;58455;-80
2023/08/08 05:37:23;;;;;;;7.40;2.90;;;;;;;39.87;38.72;100626.63;107075;1282;58240;-80
2023/08/08 05:39:48;;;;;;;4.90;3.30;;;;;;;40.38;37.92;100621.67;107187;1282;58208;-80
2023/08/08 05:42:14;;;;;;;4.10;2.80;;;;;;;40.59;37.42;100626.69;106902;1283;58288;-80
2023/08/08 05:44:41;;;;;;;8.40;3.00;;;;;;;40.90;37.17;100627.09;107161;1282;58279;-80
2023/08/08 05:47:07;;;;;;;4.60;3.40;;;;;;;41.05;36.09;100630.59;107152;1282;58379;-80
2023/08/08 05:49:32;;;;;;;3.80;3.30;;;;;;;41.24;36.07;100637.29;107108;1282;58245;-80
2023/08/08 05:51:58;;;;;;;3.70;2.80;;;;;;;41.83;34.97;100635.27;107120;1282;58254;-80
2023/08/08 05:54:23;;;;;;;5.10;3.80;;;;;;;41.58;33.73;100629.23;107148;1282;72832;-80
2023/08/08 05:56:49;;;;;;;7.30;3.50;;;;;;;40.86;34.66;100630.08;107203;1282;58217;-80
2023/08/08 05:59:14;;;;;;;7.60;3.30;;;;;;;41.14;35.26;100626.92;107101;1282;58322;-81
2023/08/08 06:01:40;;;;;;;8.90;3.30;;;;;;;41.64;34.31;100629.04;107160;1282;58187;-80
2023/08/08 06:04:05;;;;;;;4.90;3.30;;;;;;;42.00;33.77;100627.85;106772;1286;58372;-81
2023/08/08 06:06:31;;;;;;;5.20;3.70;;;;;;;42.25;33.22;100628.91;107126;1282;58557;-81
2023/08/08 06:08:56;;;;;;;8.00;3.70;;;;;;;42.59;32.70;100627.16;107141;1282;58497;-80
2023/08/08 06:11:22;;;;;;;3.80;3.30;;;;;;;42.71;32.32;100625.52;107097;1282;58570;-80
2023/08/08 06:13:48;;;;;;;7.80;3.40;;;;;;;42.86;32.28;100626.11;107138;1282;58253;-81
2023/08/08 06:16:15;;;;;;;6.10;3.70;;;;;;;43.10;31.55;100626.14;107146;1282;58558;-83
2023/08/08 06:18:41;;;;;;;4.10;3.80;;;;;;;42.95;31.58;100628.86;107135;1282;58261;-81
2023/08/08 06:21:06;;;;;;;5.30;4.00;;;;;;;42.88;31.12;100632.91;107158;1282;58233;-81
2023/08/08 06:23:32;;;;;;;18.10;4.40;;;;;;;42.95;31.17;100632.80;106631;1284;58380;-80
2023/08/08 06:25:58;;;;;;;6.10;3.90;;;;;;;42.97;30.65;100632.25;107133;1282;58285;-82
2023/08/08 06:28:24;;;;;;;4.40;4.00;;;;;;;43.00;31.13;100631.50;107157;1282;58340;-79
2023/08/08 06:30:49;;;;;;;5.80;4.10;;;;;;;43.56;30.55;100629.30;107114;1282;58242;-81
2023/08/08 06:33:15;;;;;;;5.30;4.10;;;;;;;43.68;30.17;100628.17;107116;1282;58286;-82
2023/08/08 06:35:41;;;;;;;4.60;4.20;;;;;;;44.18;29.90;100627.35;106632;1283;58233;-82
2023/08/08 06:38:08;;;;;;;7.10;4.60;;;;;;;44.61;29.20;100632.42;106796;1284;63661;-82
2023/08/08 06:40:34;;;;;;;6.90;5.10;;;;;;;44.98;29.00;100625.01;107083;1282;63651;-83
2023/08/08 06:43:00;;;;;;;5.80;4.60;;;;;;;45.17;28.45;100619.73;107148;1282;58613;-82
2023/08/08 06:48:47;;;;;;;6.80;5.80;;;;;;;44.82;28.05;100627.45;107148;1282;64840;-82
2023/08/08 06:51:13;;;;;;;7.30;5.10;;;;;;;45.03;28.18;100622.05;107214;1282;58399;-83
2023/08/08 06:53:38;;;;;;;10.60;5.20;;;;;;;45.36;27.74;100620.20;107130;1282;58329;-82
2023/08/08 06:56:04;;;;;;;6.80;5.70;;;;;;;45.30;27.88;100617.05;107172;1282;58173;-82
2023/08/08 06:58:29;;;;;;;8.10;5.40;;;;;;;45.59;27.83;100614.84;107163;1282;58497;-81
2023/08/08 07:00:55;;;;;;;10.00;5.10;;;;;;;45.79;27.34;100618.39;107208;1282;58207;-83
2023/08/08 07:03:20;;;;;;;8.30;5.10;;;;;;;46.02;26.50;100616.41;107144;1282;58416;-83
2023/08/08 07:05:47;;;;;;;7.90;5.30;;;;;;;45.96;26.51;100613.72;106593;1283;58311;-81
2023/08/08 07:08:13;;;;;;;7.00;4.80;;;;;;;45.87;26.65;100612.44;107132;1282;58230;-82
2023/08/08 07:10:39;;;;;;;8.50;4.90;;;;;;;45.77;26.53;100613.45;107191;1282;58257;-82
2023/08/08 07:13:04;;;;;;;8.60;5.70;;;;;;;45.40;26.09;100612.70;107134;1282;58211;-83
2023/08/08 07:15:30;;;;;;;8.10;5.70;;;;;;;45.22;26.21;100611.63;107175;1282;58195;-81
2023/08/08 07:17:56;;;;;;;12.90;5.80;;;;;;;45.36;26.05;100612.14;107151;1282;58132;-83
2023/08/08 07:20:22;;;;;;;9.00;6.90;;;;;;;45.41;26.13;100616.42;107148;1282;58310;-82
2023/08/08 07:22:48;;;;;;;18.10;7.10;;;;;;;45.14;25.73;100606.77;106715;1283;58450;-82
2023/08/08 07:25:13;;;;;;;7.40;6.20;;;;;;;44.68;26.72;100614.23;107176;1282;58279;-83
2023/08/08 07:27:39;;;;;;;8.80;6.50;;;;;;;45.20;26.52;100611.48;107141;1282;58300;-83
2023/08/08 07:33:26;;;;;;;11.20;6.50;;;;;;;45.80;25.84;100610.27;107156;1282;64678;-82
2023/08/08 07:35:51;;;;;;;8.60;5.80;;;;;;;45.99;25.79;100611.10;107125;1282;58214;-82
2023/08/08 07:38:16;;;;;;;8.60;5.60;;;;;;;45.79;25.74;100614.66;106877;1283;58219;-81
2023/08/08 07:40:42;;;;;;;7.40;5.80;;;;;;;46.07;25.49;100616.85;107131;1282;58568;-82
2023/08/08 07:43:07;;;;;;;6.60;6.00;;;;;;;46.38;24.75;100618.77;107171;1282;58343;-81
2023/08/08 07:45:33;;;;;;;11.50;6.60;;;;;;;45.23;24.74;100619.43;107115;1282;58324;-82
2023/08/08 07:47:58;;;;;;;6.70;6.00;;;;;;;44.65;25.99;100620.64;107110;1282;58323;-82
2023/08/08 07:50:24;;;;;;;8.90;6.00;;;;;;;44.92;25.90;100614.79;107139;1282;58282;-81
2023/08/08 07:52:49;;;;;;;11.10;5.90;;;;;;;45.19;24.81;100619.60;107146;1282;58257;-81
2023/08/08 07:55:15;;;;;;;6.40;5.70;;;;;;;44.40;25.09;100620.36;106994;1283;58376;-82
2023/08/08 07:57:40;;;;;;;5.70;4.70;;;;;;;43.99;25.79;100621.99;106902;1284;59456;-80
2023/08/08 08:00:18;;;;;;;7.30;5.80;;;;;;;43.55;25.95;100618.73;107152;1282;58343;-82
2023/08/08 08:02:44;;;;;;;8.10;5.20;;;;;;;43.75;26.09;100618.11;107115;1282;73718;-82
2023/08/08 08:05:10;;;;;;;6.40;5.30;;;;;;;43.52;26.46;100609.81;106770;1282;58303;-82
2023/08/08 08:07:36;;;;;;;10.80;6.20;;;;;;;43.88;25.99;100612.92;106757;1283;58335;-82
2023/08/08 08:10:04;;;;;;;11.70;5.70;;;;;;;43.98;26.12;100616.92;107081;1283;58210;-81
2023/08/08 08:12:30;;;;;;;6.50;4.40;;;;;;;44.30;25.90;100619.89;106652;1283;58773;-81
2023/08/08 08:14:55;;;;;;;7.90;4.70;;;;;;;44.74;25.49;100610.23;106808;1282;58467;-81
2023/08/08 08:17:21;;;;;;;9.40;5.10;;;;;;;45.21;25.27;100607.27;107185;1282;58441;-82
2023/08/08 08:19:46;;;;;;;7.30;5.20;;;;;;;45.36;25.10;100607.35;106795;1283;58859;-80
2023/08/08 08:22:12;;;;;;;7.20;5.10;;;;;;;45.26;24.91;100611.46;107108;1283;58279;-80
2023/08/08 08:24:37;;;;;;;7.10;5.00;;;;;;;44.93;25.00;100611.91;107206;1282;59024;-83
2023/08/08 08:27:03;;;;;;;8.70;6.10;;;;;;;44.80;25.21;100611.80;106789;1283;58402;-82
2023/08/08 08:29:29;;;;;;;13.70;6.80;;;;;;;44.95;25.35;100608.30;107154;1282;58557;-80
2023/08/08 08:31:54;;;;;;;8.50;5.80;;;;;;;45.04;24.98;100601.89;107153;1282;58207;-82
2023/08/08 08:34:19;;;;;;;12.90;6.00;;;;;;;45.17;24.96;100602.02;107183;1282;58307;-82
2023/08/08 08:36:45;;;;;;;7.50;5.70;;;;;;;45.29;24.94;100603.00;107224;1282;58186;-80
2023/08/08 08:39:10;;;;;;;7.80;5.50;;;;;;;45.29;24.56;100599.73;107186;1282;58854;-83
2023/08/08 08:41:39;;;;;;;10.00;6.00;;;;;;;45.13;24.35;100602.98;107153;1282;58220;-81
2023/08/08 08:44:07;;;;;;;10.40;6.70;;;;;;;44.40;24.48;100605.45;107151;1282;61126;-81
2023/08/08 08:46:36;;;;;;;10.40;6.30;;;;;;;43.90;24.93;100607.16;106813;1283;72396;-82
2023/08/08 08:49:02;;;;;;;8.50;5.10;;;;;;;43.95;25.07;100609.70;107174;1282;73418;-80
2023/08/08 08:51:28;;;;;;;9.90;4.60;;;;;;;44.36;25.01;100603.55;107138;1282;58196;-81
2023/08/08 08:53:54;;;;;;;8.70;4.90;;;;;;;44.61;24.66;100602.75;107166;1282;58698;-82
2023/08/08 08:56:20;;;;;;;16.50;8.90;;;;;;;44.76;23.97;100597.74;107214;1282;58606;-81
2023/08/08 08:58:45;;;;;;;24.80;12.50;;;;;;;44.61;24.21;100598.02;106843;1282;58729;-81
2023/08/08 09:01:11;;;;;;;18.00;9.90;;;;;;;44.45;24.41;100594.38;107164;1282;58263;-82
2023/08/08 09:03:37;;;;;;;15.10;7.00;;;;;;;44.58;24.37;100591.34;107154;1282;58296;-81
2023/08/08 09:06:05;;;;;;;13.40;7.00;;;;;;;44.74;24.33;100583.89;106794;1283;58280;-80
2023/08/08 09:08:31;;;;;;;19.80;9.30;;;;;;;44.43;24.45;100590.20;107159;1282;74833;-80
2023/08/08 09:10:56;;;;;;;13.60;7.70;;;;;;;44.17;24.97;100584.66;107135;1282;58327;-80
2023/08/08 09:13:25;;;;;;;12.70;6.70;;;;;;;44.32;24.96;100581.86;107115;1282;58306;-81
2023/08/08 09:15:51;;;;;;;14.50;7.40;;;;;;;44.31;24.12;100580.55;107120;1282;61156;-80
2023/08/08 09:18:16;;;;;;;8.30;5.30;;;;;;;43.93;24.69;100581.20;106790;1283;58503;-80
2023/08/08 09:20:47;;;;;;;6.30;3.80;;;;;;;43.79;25.17;100584.46;107201;1282;58282;-80
2023/08/08 09:23:13;;;;;;;;;;;;;;;43.51;25.15;100584.88;107189;1282;74332;-80
2023/08/08 09:25:38;;;;;;;3.90;3.00;;;;;;;42.96;25.45;100586.97;106806;1283;58333;-80
2023/08/08 09:28:04;;;;;;;5.50;2.90;;;;;;;42.22;25.74;100584.77;107150;1282;58236;-81
2023/08/08 09:30:30;;;;;;;3.10;2.60;;;;;;;41.60;27.13;100590.89;107171;1282;58273;-80
2023/08/08 09:32:58;;;;;;;5.40;2.50;;;;;;;41.95;27.34;100585.81;107161;1282;58194;-80
2023/08/08 09:35:24;;;;;;;4.40;2.50;;;;;;;41.89;26.80;100586.52;106911;1283;58279;-82
2023/08/08 09:37:53;;;;;;;2.90;1.70;;;;;;;41.62;26.91;100585.91;107112;1282;58300;-80
2023/08/08 09:40:21;;;;;;;5.60;2.10;;;;;;;41.41;27.18;100574.17;106903;1283;61220;-80
2023/08/08 09:42:46;;;;;;;3.10;1.80;;;;;;;41.05;27.50;100570.23;106748;1283;60037;-80
2023/08/08 09:45:12;;;;;;;2.80;2.00;;;;;;;40.89;27.67;100570.75;106800;1282;58296;-80
2023/08/08 09:47:38;;;;;;;4.80;2.10;;;;;;;40.75;27.22;100562.94;107136;1282;58666;-79
2023/08/08 09:50:04;;;;;;;5.30;2.40;;;;;;;40.02;28.13;100565.80;107114;1282;58668;-80
2023/08/08 09:52:30;;;;;;;2.60;1.90;;;;;;;39.62;28.83;100563.64;106778;1283;58482;-79
2023/08/08 09:54:57;;;;;;;2.50;1.90;;;;;;;39.41;29.17;100565.95;107193;1282;58266;-80
2023/08/08 09:57:24;;;;;;;2.20;2.00;;;;;;;39.38;29.61;100566.96;107184;1282;58241;-79
2023/08/08 09:59:51;;;;;;;3.00;2.10;;;;;;;39.39;29.62;100569.57;107139;1282;59053;-79
2023/08/08 10:02:17;;;;;;;4.30;1.70;;;;;;;39.13;29.79;100566.06;107118;1282;58248;-79
2023/08/08 10:04:45;;;;;;;2.00;1.60;;;;;;;38.96;30.12;100563.88;107149;1282;58235;-80
2023/08/08 10:07:10;;;;;;;2.70;1.80;;;;;;;38.65;29.87;100566.05;107148;1282;58237;-81
2023/08/08 10:09:37;;;;;;;3.90;1.70;;;;;;;38.27;30.10;100566.95;107139;1282;58281;-80
2023/08/08 10:12:04;;;;;;;3.10;1.60;;;;;;;37.93;30.75;100573.02;107157;1282;58268;-78
2023/08/08 10:14:36;;;;;;;1.70;1.60;;;;;;;37.66;30.57;100571.25;107138;1282;58440;-77
2023/08/08 10:17:06;;;;;;;1.50;1.40;;;;;;;37.17;29.98;100568.84;107106;1282;60086;-78
2023/08/08 10:19:32;;;;;;;5.90;2.00;;;;;;;36.97;31.45;100569.70;107127;1282;61718;-80
2023/08/08 10:22:05;;;;;;;2.00;1.50;;;;;;;36.92;31.57;100568.55;107111;1282;58182;-79
2023/08/08 10:24:35;;;;;;;3.50;1.90;;;;;;;36.80;31.90;100569.89;107156;1282;74332;-78
2023/08/08 10:27:02;;;;;;;4.40;2.00;;;;;;;37.00;31.23;100566.97;107112;1282;72571;-79
2023/08/08 10:29:29;;;;;;;4.20;2.00;;;;;;;37.12;31.29;100565.95;107087;1282;61142;-78
2023/08/08 10:32:06;;;;;;;5.40;3.50;;;;;;;37.10;30.92;100569.20;107066;1282;60049;-78
2023/08/08 10:34:42;;;;;;;13.90;3.70;;;;;;;36.73;30.31;100573.32;107120;1282;73597;-78
2023/08/08 10:37:17;;;;;;;5.80;3.40;;;;;;;36.64;31.75;100567.45;107067;1282;74210;-79
2023/08/08 10:40:11;;;;;;;7.70;2.50;;;;;;;36.67;31.91;100573.14;107106;1282;72628;-80
2023/08/08 10:42:45;;;;;;;4.60;2.30;;;;;;;36.73;31.47;100568.23;106253;1290;61227;-78
2023/08/08 10:45:15;;;;;;;8.40;3.30;;;;;;;36.80;31.96;100570.62;106234;1290;60111;-79
2023/08/08 10:47:42;;;;;;;8.00;3.50;;;;;;;36.87;31.87;100571.16;106209;1294;75312;-78
2023/08/08 10:50:12;;;;;;;7.20;3.70;;;;;;;36.85;31.10;100566.58;106232;1291;74580;-79
2023/08/08 10:52:52;;;;;;;11.40;4.40;;;;;;;36.91;31.30;100567.84;106263;1291;73713;-80
2023/08/08 10:55:34;;;;;;;15.00;5.80;;;;;;;36.99;30.90;100567.73;106268;1291;60967;-78
2023/08/08 10:58:12;;;;;;;16.60;5.10;;;;;;;36.99;30.94;100564.29;105946;1290;61258;-78
2023/08/08 11:00:39;;;;;;;6.80;4.00;;;;;;;36.96;31.48;100562.36;106054;1290;73942;-78
2023/08/08 11:03:06;;;;;;;12.20;5.40;;;;;;;37.15;31.23;100565.47;106289;1291;73454;-78
2023/08/08 11:05:35;;;;;;;15.00;6.30;;;;;;;37.12;31.00;100566.35;106142;1292;58267;-79
2023/08/08 11:08:02;;;;;;;10.00;5.30;;;;;;;36.85;31.46;100569.05;106255;1291;60549;-78
2023/08/08 11:10:31;;;;;;;11.10;5.70;;;;;;;36.47;31.28;100563.84;106297;1291;60022;-78
2023/08/08 11:13:03;;;;;;;8.40;4.40;;;;;;;36.46;31.81;100558.73;106237;1291;74558;-78
2023/08/08 11:15:29;;;;;;;7.90;4.50;;;;;;;36.59;31.56;100561.14;106290;1291;74327;-78